Terminal Aerodrome Forecast
Issued by NWS

Home | Current Version | Previous Version | Text Only | Print | Product List | Glossary On
Versions: 1 2 3 4 5 6 7 8 9 10 11 12 13 14 15
687
FTUS45 KABQ 242342
TAFSAF
TAF
KSAF 242342Z 2500/2524 11015KT P6SM VCTS SCT070CB BKN120
      TEMPO 2500/2502 VRB20G30KT 5SM -SHRA BKN070
     FM250200 12015KT P6SM VCSH BKN090
     FM250500 03008KT P6SM SCT110 BKN150
     FM251900 17011KT P6SM SCT090
     FM252300 15015KT P6SM VCSH BKN080=

USA.gov is the U.S. government's official web portal to all federal, state and local government web resources and services.